sensor_id;sensor_type;location;lat;lon;timestamp;pressure;altitude;pressure_sealevel;temperature;humidity
76732;BME280;65656;51.130;13.658;2024-01-30T00:00:51;100625.97;;;2.32;100.00
76732;BME280;65656;51.130;13.658;2024-01-30T00:04:53;100623.78;;;2.27;100.00
76732;BME280;65656;51.130;13.658;2024-01-30T00:09:00;100621.91;;;2.36;100.00
76732;BME280;65656;51.130;13.658;2024-01-30T00:13:03;100615.13;;;2.23;100.00
76732;BME280;65656;51.130;13.658;2024-01-30T00:17:05;100623.41;;;2.22;100.00
76732;BME280;65656;51.130;13.658;2024-01-30T00:21:06;100619.88;;;2.21;100.00
76732;BME280;65656;51.130;13.658;2024-01-30T00:25:08;100625.44;;;2.12;100.00
76732;BME280;65656;51.130;13.658;2024-01-30T00:29:11;100623.38;;;1.98;100.00
76732;BME280;65656;51.130;13.658;2024-01-30T00:33:12;100620.50;;;1.99;100.00
76732;BME280;65656;51.130;13.658;2024-01-30T00:37:14;100609.31;;;1.86;100.00
76732;BME280;65656;51.130;13.658;2024-01-30T00:41:18;100614.69;;;1.78;100.00
76732;BME280;65656;51.130;13.658;2024-01-30T00:45:21;100617.44;;;1.94;100.00
76732;BME280;65656;51.130;13.658;2024-01-30T00:49:22;100606.97;;;1.99;100.00
76732;BME280;65656;51.130;13.658;2024-01-30T00:53:24;100601.94;;;2.04;100.00
76732;BME280;65656;51.130;13.658;2024-01-30T00:57:25;100612.22;;;2.01;100.00
76732;BME280;65656;51.130;13.658;2024-01-30T01:01:28;100615.06;;;1.91;100.00
76732;BME280;65656;51.130;13.658;2024-01-30T01:05:30;100619.16;;;1.95;100.00
76732;BME280;65656;51.130;13.658;2024-01-30T01:09:32;100615.09;;;1.99;100.00
76732;BME280;65656;51.130;13.658;2024-01-30T01:13:33;100611.38;;;2.00;100.00
76732;BME280;65656;51.130;13.658;2024-01-30T01:17:37;100609.31;;;1.94;100.00
76732;BME280;65656;51.130;13.658;2024-01-30T01:21:38;100603.25;;;1.92;100.00
76732;BME280;65656;51.130;13.658;2024-01-30T01:25:41;100607.31;;;1.88;100.00
76732;BME280;65656;51.130;13.658;2024-01-30T01:29:42;100599.84;;;1.82;100.00
76732;BME280;65656;51.130;13.658;2024-01-30T01:33:45;100606.28;;;1.81;100.00
76732;BME280;65656;51.130;13.658;2024-01-30T01:37:47;100608.59;;;1.76;100.00
76732;BME280;65656;51.130;13.658;2024-01-30T01:41:48;100605.09;;;1.83;100.00
76732;BME280;65656;51.130;13.658;2024-01-30T01:45:50;100601.72;;;1.81;100.00
76732;BME280;65656;51.130;13.658;2024-01-30T01:49:53;100595.13;;;1.84;100.00
76732;BME280;65656;51.130;13.658;2024-01-30T01:53:55;100598.16;;;1.81;100.00
76732;BME280;65656;51.130;13.658;2024-01-30T01:57:58;100595.78;;;1.78;100.00
76732;BME280;65656;51.130;13.658;2024-01-30T02:02:01;100596.13;;;1.75;100.00
76732;BME280;65656;51.130;13.658;2024-01-30T02:06:05;100585.97;;;1.77;100.00
76732;BME280;65656;51.130;13.658;2024-01-30T02:10:07;100586.31;;;1.74;100.00
76732;BME280;65656;51.130;13.658;2024-01-30T02:14:09;100582.78;;;1.73;100.00
76732;BME280;65656;51.130;13.658;2024-01-30T02:18:10;100582.94;;;1.72;100.00
76732;BME280;65656;51.130;13.658;2024-01-30T02:22:14;100592.19;;;1.69;100.00
76732;BME280;65656;51.130;13.658;2024-01-30T02:26:16;100589.00;;;1.65;100.00
76732;BME280;65656;51.130;13.658;2024-01-30T02:30:17;100583.25;;;1.68;100.00
76732;BME280;65656;51.130;13.658;2024-01-30T02:34:19;100585.75;;;1.62;100.00
76732;BME280;65656;51.130;13.658;2024-01-30T02:38:23;100585.25;;;1.58;100.00
76732;BME280;65656;51.130;13.658;2024-01-30T02:42:24;100579.00;;;1.58;100.00
76732;BME280;65656;51.130;13.658;2024-01-30T02:46:26;100577.16;;;1.58;100.00
76732;BME280;65656;51.130;13.658;2024-01-30T02:50:28;100563.97;;;1.55;100.00
76732;BME280;65656;51.130;13.658;2024-01-30T02:54:30;100583.75;;;1.56;100.00
76732;BME280;65656;51.130;13.658;2024-01-30T02:58:32;100573.06;;;1.54;100.00
76732;BME280;65656;51.130;13.658;2024-01-30T03:02:33;100570.03;;;1.49;100.00
76732;BME280;65656;51.130;13.658;2024-01-30T03:06:35;100569.84;;;1.43;100.00
76732;BME280;65656;51.130;13.658;2024-01-30T03:10:38;100575.53;;;1.39;100.00
76732;BME280;65656;51.130;13.658;2024-01-30T03:14:42;100565.59;;;1.40;100.00
76732;BME280;65656;51.130;13.658;2024-01-30T03:18:44;100578.41;;;1.38;100.00
76732;BME280;65656;51.130;13.658;2024-01-30T03:22:45;100571.53;;;1.44;100.00
76732;BME280;65656;51.130;13.658;2024-01-30T03:26:48;100573.19;;;1.36;100.00
76732;BME280;65656;51.130;13.658;2024-01-30T03:30:50;100569.50;;;1.46;100.00
76732;BME280;65656;51.130;13.658;2024-01-30T03:34:51;100569.13;;;1.32;100.00
76732;BME280;65656;51.130;13.658;2024-01-30T03:38:53;100584.03;;;1.10;100.00
76732;BME280;65656;51.130;13.658;2024-01-30T03:42:56;100581.00;;;1.14;100.00
76732;BME280;65656;51.130;13.658;2024-01-30T03:46:58;100576.78;;;1.11;100.00
76732;BME280;65656;51.130;13.658;2024-01-30T03:51:00;100572.66;;;0.99;100.00
76732;BME280;65656;51.130;13.658;2024-01-30T03:55:01;100581.56;;;0.91;100.00
76732;BME280;65656;51.130;13.658;2024-01-30T03:59:04;100573.75;;;0.80;100.00
76732;BME280;65656;51.130;13.658;2024-01-30T04:03:06;100583.13;;;0.76;100.00
76732;BME280;65656;51.130;13.658;2024-01-30T04:07:08;100572.41;;;0.84;100.00
76732;BME280;65656;51.130;13.658;2024-01-30T04:11:09;100570.53;;;0.84;100.00
76732;BME280;65656;51.130;13.658;2024-01-30T04:15:12;100571.09;;;0.88;100.00
76732;BME280;65656;51.130;13.658;2024-01-30T04:19:14;100576.47;;;0.88;100.00
76732;BME280;65656;51.130;13.658;2024-01-30T04:23:21;100575.09;;;0.84;100.00
76732;BME280;65656;51.130;13.658;2024-01-30T04:27:23;100573.75;;;0.80;100.00
76732;BME280;65656;51.130;13.658;2024-01-30T04:31:26;100563.75;;;0.72;100.00
76732;BME280;65656;51.130;13.658;2024-01-30T04:35:28;100564.81;;;0.62;100.00
76732;BME280;65656;51.130;13.658;2024-01-30T04:39:29;100557.41;;;0.55;100.00
76732;BME280;65656;51.130;13.658;2024-01-30T04:43:31;100557.78;;;0.69;100.00
76732;BME280;65656;51.130;13.658;2024-01-30T04:47:34;100565.47;;;0.55;100.00
76732;BME280;65656;51.130;13.658;2024-01-30T04:51:35;100556.44;;;0.65;100.00
76732;BME280;65656;51.130;13.658;2024-01-30T04:55:37;100554.19;;;0.78;100.00
76732;BME280;65656;51.130;13.658;2024-01-30T04:59:39;100550.66;;;0.60;100.00
76732;BME280;65656;51.130;13.658;2024-01-30T05:03:42;100550.38;;;0.63;100.00
76732;BME280;65656;51.130;13.658;2024-01-30T05:07:44;100538.28;;;0.75;100.00
76732;BME280;65656;51.130;13.658;2024-01-30T05:11:46;100544.91;;;0.80;100.00
76732;BME280;65656;51.130;13.658;2024-01-30T05:15:47;100543.47;;;0.94;100.00
76732;BME280;65656;51.130;13.658;2024-01-30T05:19:50;100533.72;;;1.01;100.00
76732;BME280;65656;51.130;13.658;2024-01-30T05:23:52;100537.78;;;1.05;100.00
76732;BME280;65656;51.130;13.658;2024-01-30T05:27:53;100535.75;;;1.07;100.00
76732;BME280;65656;51.130;13.658;2024-01-30T05:31:57;100534.75;;;1.08;100.00
76732;BME280;65656;51.130;13.658;2024-01-30T05:36:00;100523.94;;;1.08;100.00
76732;BME280;65656;51.130;13.658;2024-01-30T05:40:01;100534.75;;;1.08;100.00
76732;BME280;65656;51.130;13.658;2024-01-30T05:44:03;100534.44;;;1.11;100.00
76732;BME280;65656;51.130;13.658;2024-01-30T05:48:05;100532.03;;;1.08;100.00
76732;BME280;65656;51.130;13.658;2024-01-30T05:52:08;100539.84;;;1.11;100.00
76732;BME280;65656;51.130;13.658;2024-01-30T05:56:09;100537.81;;;1.14;100.00
76732;BME280;65656;51.130;13.658;2024-01-30T06:00:12;100531.78;;;1.20;100.00
76732;BME280;65656;51.130;13.658;2024-01-30T06:04:13;100539.50;;;1.15;100.00
76732;BME280;65656;51.130;13.658;2024-01-30T06:08:17;100533.47;;;1.21;100.00
76732;BME280;65656;51.130;13.658;2024-01-30T06:12:19;100526.03;;;1.23;100.00
76732;BME280;65656;51.130;13.658;2024-01-30T06:16:20;100541.94;;;1.26;100.00
76732;BME280;65656;51.130;13.658;2024-01-30T06:20:22;100532.28;;;1.23;100.00
76732;BME280;65656;51.130;13.658;2024-01-30T06:24:25;100542.25;;;1.23;100.00
76732;BME280;65656;51.130;13.658;2024-01-30T06:28:27;100533.00;;;1.25;100.00
76732;BME280;65656;51.130;13.658;2024-01-30T06:32:29;100527.41;;;1.27;100.00
76732;BME280;65656;51.130;13.658;2024-01-30T06:36:30;100534.50;;;1.28;100.00
76732;BME280;65656;51.130;13.658;2024-01-30T06:40:33;100535.69;;;1.25;100.00
76732;BME280;65656;51.130;13.658;2024-01-30T06:44:35;100530.78;;;1.29;100.00
76732;BME280;65656;51.130;13.658;2024-01-30T06:48:37;100531.97;;;1.26;100.00
76732;BME280;65656;51.130;13.658;2024-01-30T06:52:38;100526.78;;;1.33;100.00
76732;BME280;65656;51.130;13.658;2024-01-30T06:56:41;100526.78;;;1.33;100.00
76732;BME280;65656;51.130;13.658;2024-01-30T07:00:43;100531.84;;;1.36;100.00
76732;BME280;65656;51.130;13.658;2024-01-30T07:04:44;100531.50;;;1.39;100.00
76732;BME280;65656;51.130;13.658;2024-01-30T07:08:48;100534.19;;;1.39;100.00
76732;BME280;65656;51.130;13.658;2024-01-30T07:12:52;100533.88;;;1.42;100.00
76732;BME280;65656;51.130;13.658;2024-01-30T07:16:53;100532.53;;;1.46;100.00
76732;BME280;65656;51.130;13.658;2024-01-30T07:20:58;100540.34;;;1.49;100.00
76732;BME280;65656;51.130;13.658;2024-01-30T07:24:59;100536.63;;;1.58;100.00
76732;BME280;65656;51.130;13.658;2024-01-30T07:29:02;100529.53;;;1.57;100.00
76732;BME280;65656;51.130;13.658;2024-01-30T07:33:04;100526.88;;;1.65;100.00
76732;BME280;65656;51.130;13.658;2024-01-30T07:37:06;100538.69;;;1.73;100.00
76732;BME280;65656;51.130;13.658;2024-01-30T07:41:07;100536.31;;;1.78;100.00
76732;BME280;65656;51.130;13.658;2024-01-30T07:45:11;100544.13;;;1.89;100.00
76732;BME280;65656;51.130;13.658;2024-01-30T07:49:12;100539.41;;;1.99;100.00
76732;BME280;65656;51.130;13.658;2024-01-30T07:53:14;100524.56;;;2.03;100.00
76732;BME280;65656;51.130;13.658;2024-01-30T07:57:16;100529.28;;;2.09;100.00
76732;BME280;65656;51.130;13.658;2024-01-30T08:01:18;100533.34;;;2.13;100.00
76732;BME280;65656;51.130;13.658;2024-01-30T08:05:21;100538.41;;;2.24;100.00
76732;BME280;65656;51.130;13.658;2024-01-30T08:09:22;100545.50;;;2.26;100.00
76732;BME280;65656;51.130;13.658;2024-01-30T08:13:24;100537.72;;;2.31;100.00
76732;BME280;65656;51.130;13.658;2024-01-30T08:17:29;100538.38;;;2.41;100.00
76732;BME280;65656;51.130;13.658;2024-01-30T08:21:31;100542.47;;;2.53;99.03
76732;BME280;65656;51.130;13.658;2024-01-30T08:25:35;100531.97;;;2.66;98.18
76732;BME280;65656;51.130;13.658;2024-01-30T08:29:36;100547.16;;;2.75;97.53
76732;BME280;65656;51.130;13.658;2024-01-30T08:33:39;100542.41;;;2.86;96.42
76732;BME280;65656;51.130;13.658;2024-01-30T08:37:43;100552.34;;;2.93;95.60
76732;BME280;65656;51.130;13.658;2024-01-30T08:41:45;100565.38;;;3.06;96.11
76732;BME280;65656;51.130;13.658;2024-01-30T08:45:47;100574.13;;;3.16;94.06
76732;BME280;65656;51.130;13.658;2024-01-30T08:49:50;100585.09;;;3.31;93.79
76732;BME280;65656;51.130;13.658;2024-01-30T08:53:51;100581.19;;;3.25;93.53
76732;BME280;65656;51.130;13.658;2024-01-30T08:57:53;100584.25;;;3.30;95.23
76732;BME280;65656;51.130;13.658;2024-01-30T09:01:54;100583.03;;;3.33;92.97
76732;BME280;65656;51.130;13.658;2024-01-30T09:06:13;100589.81;;;3.37;93.33
76732;BME280;65656;51.130;13.658;2024-01-30T09:10:15;100588.75;;;3.46;93.53
76732;BME280;65656;51.130;13.658;2024-01-30T09:14:20;100580.41;;;3.56;92.74
76732;BME280;65656;51.130;13.658;2024-01-30T09:18:21;100579.38;;;3.57;92.20
76732;BME280;65656;51.130;13.658;2024-01-30T09:22:24;100576.63;;;3.65;92.68
76732;BME280;65656;51.130;13.658;2024-01-30T09:26:26;100577.28;;;3.75;92.07
76732;BME280;65656;51.130;13.658;2024-01-30T09:30:28;100567.75;;;3.79;91.89
76732;BME280;65656;51.130;13.658;2024-01-30T09:34:29;100560.19;;;3.75;91.90
76732;BME280;65656;51.130;13.658;2024-01-30T09:38:32;100546.06;;;3.79;91.16
76732;BME280;65656;51.130;13.658;2024-01-30T09:42:34;100546.38;;;3.84;90.23
76732;BME280;65656;51.130;13.658;2024-01-30T09:46:37;100545.25;;;4.02;89.35
76732;BME280;65656;51.130;13.658;2024-01-30T09:50:39;100544.28;;;4.17;89.24
76732;BME280;65656;51.130;13.658;2024-01-30T09:54:43;100548.28;;;4.30;87.42
76732;BME280;65656;51.130;13.658;2024-01-30T09:58:46;100542.97;;;4.36;85.66
76732;BME280;65656;51.130;13.658;2024-01-30T10:02:47;100544.66;;;4.37;85.49
76732;BME280;65656;51.130;13.658;2024-01-30T10:06:49;100539.06;;;4.54;85.70
76732;BME280;65656;51.130;13.658;2024-01-30T10:10:53;100552.19;;;4.65;83.36
76732;BME280;65656;51.130;13.658;2024-01-30T10:14:56;100544.56;;;4.83;84.30
76732;BME280;65656;51.130;13.658;2024-01-30T10:18:58;100545.88;;;4.87;83.40
76732;BME280;65656;51.130;13.658;2024-01-30T10:22:59;100547.38;;;4.75;84.05
76732;BME280;65656;51.130;13.658;2024-01-30T10:27:03;100540.91;;;4.76;82.76
76732;BME280;65656;51.130;13.658;2024-01-30T10:31:04;100532.38;;;4.79;82.22
76732;BME280;65656;51.130;13.658;2024-01-30T10:35:07;100525.72;;;4.82;83.74
76732;BME280;65656;51.130;13.658;2024-01-30T10:39:10;100521.50;;;4.79;83.42
76732;BME280;65656;51.130;13.658;2024-01-30T10:43:15;100527.59;;;4.81;83.09
76732;BME280;65656;51.130;13.658;2024-01-30T10:47:21;100524.53;;;4.84;82.44
76732;BME280;65656;51.130;13.658;2024-01-30T10:51:26;100523.59;;;4.77;82.76
76732;BME280;65656;51.130;13.658;2024-01-30T10:55:28;100517.59;;;4.96;83.79
76732;BME280;65656;51.130;13.658;2024-01-30T10:59:32;100524.25;;;5.09;81.27
76732;BME280;65656;51.130;13.658;2024-01-30T11:03:34;100512.34;;;5.10;81.83
76732;BME280;65656;51.130;13.658;2024-01-30T11:07:39;100505.69;;;5.12;81.42
76732;BME280;65656;51.130;13.658;2024-01-30T11:11:49;100490.06;;;4.99;81.02
76732;BME280;65656;51.130;13.658;2024-01-30T11:15:52;100497.72;;;4.96;81.30
76732;BME280;65656;51.130;13.658;2024-01-30T11:19:53;100494.28;;;4.87;82.37
76732;BME280;65656;51.130;13.658;2024-01-30T11:23:55;100486.13;;;4.87;81.59
76732;BME280;65656;51.130;13.658;2024-01-30T11:27:58;100486.97;;;4.88;82.00
76732;BME280;65656;51.130;13.658;2024-01-30T11:32:01;100491.94;;;4.84;83.02
76732;BME280;65656;51.130;13.658;2024-01-30T11:36:03;100483.28;;;4.66;83.11
76732;BME280;65656;51.130;13.658;2024-01-30T11:40:06;100490.41;;;4.67;84.44
76732;BME280;65656;51.130;13.658;2024-01-30T11:44:08;100486.59;;;4.61;83.73
76732;BME280;65656;51.130;13.658;2024-01-30T11:48:11;100482.34;;;4.59;85.26
76732;BME280;65656;51.130;13.658;2024-01-30T11:52:13;100466.22;;;4.42;83.88
76732;BME280;65656;51.130;13.658;2024-01-30T11:56:15;100453.34;;;4.44;84.89
76732;BME280;65656;51.130;13.658;2024-01-30T12:00:18;100449.69;;;4.37;85.33
76732;BME280;65656;51.130;13.658;2024-01-30T12:04:21;100452.31;;;4.45;85.47
76732;BME280;65656;51.130;13.658;2024-01-30T12:08:23;100451.94;;;4.63;84.98
76732;BME280;65656;51.130;13.658;2024-01-30T12:12:26;100456.34;;;4.79;83.98
76732;BME280;65656;51.130;13.658;2024-01-30T12:16:28;100453.00;;;4.77;83.16
76732;BME280;65656;51.130;13.658;2024-01-30T12:20:32;100461.31;;;4.75;83.39
76732;BME280;65656;51.130;13.658;2024-01-30T12:24:34;100462.25;;;4.83;83.79
76732;BME280;65656;51.130;13.658;2024-01-30T12:28:36;100463.84;;;4.92;82.83
76732;BME280;65656;51.130;13.658;2024-01-30T12:32:39;100454.75;;;4.85;82.80
76732;BME280;65656;51.130;13.658;2024-01-30T12:36:42;100460.50;;;4.75;82.82
76732;BME280;65656;51.130;13.658;2024-01-30T12:40:44;100458.97;;;4.87;81.36
76732;BME280;65656;51.130;13.658;2024-01-30T12:44:46;100447.84;;;4.67;82.17
76732;BME280;65656;51.130;13.658;2024-01-30T12:48:47;100448.31;;;4.71;82.06
76732;BME280;65656;51.130;13.658;2024-01-30T12:52:50;100447.91;;;4.74;81.57
76732;BME280;65656;51.130;13.658;2024-01-30T12:56:52;100446.91;;;4.75;83.20
76732;BME280;65656;51.130;13.658;2024-01-30T13:00:54;100449.44;;;4.91;81.49
76732;BME280;65656;51.130;13.658;2024-01-30T13:04:56;100444.84;;;4.92;81.28
76732;BME280;65656;51.130;13.658;2024-01-30T13:08:59;100437.34;;;4.94;81.08
76732;BME280;65656;51.130;13.658;2024-01-30T13:13:01;100429.53;;;5.06;80.85
76732;BME280;65656;51.130;13.658;2024-01-30T13:17:03;100432.19;;;5.14;80.43
76732;BME280;65656;51.130;13.658;2024-01-30T13:21:05;100431.88;;;5.23;79.61
76732;BME280;65656;51.130;13.658;2024-01-30T13:25:08;100437.00;;;5.33;79.56
76732;BME280;65656;51.130;13.658;2024-01-30T13:29:10;100433.91;;;5.57;77.24
76732;BME280;65656;51.130;13.658;2024-01-30T13:33:11;100423.69;;;5.59;76.88
76732;BME280;65656;51.130;13.658;2024-01-30T13:37:13;100421.88;;;5.67;76.97
76732;BME280;65656;51.130;13.658;2024-01-30T13:41:16;100427.47;;;5.44;78.05
76732;BME280;65656;51.130;13.658;2024-01-30T13:45:18;100426.47;;;5.09;78.72
76732;BME280;65656;51.130;13.658;2024-01-30T13:49:21;100428.41;;;5.29;77.57
76732;BME280;65656;51.130;13.658;2024-01-30T13:53:22;100426.94;;;4.97;81.46
76732;BME280;65656;51.130;13.658;2024-01-30T13:57:25;100433.13;;;4.62;82.71
76732;BME280;65656;51.130;13.658;2024-01-30T14:01:27;100415.16;;;4.31;83.45
76732;BME280;65656;51.130;13.658;2024-01-30T14:05:28;100414.50;;;4.44;83.58
76732;BME280;65656;51.130;13.658;2024-01-30T14:09:30;100407.81;;;4.17;84.66
76732;BME280;65656;51.130;13.658;2024-01-30T14:13:33;100402.94;;;3.98;86.58
76732;BME280;65656;51.130;13.658;2024-01-30T14:17:35;100408.94;;;4.08;86.28
76732;BME280;65656;51.130;13.658;2024-01-30T14:21:37;100410.50;;;4.02;87.58
76732;BME280;65656;51.130;13.658;2024-01-30T14:25:38;100411.72;;;4.00;86.12
76732;BME280;65656;51.130;13.658;2024-01-30T14:29:41;100418.72;;;3.94;87.34
76732;BME280;65656;51.130;13.658;2024-01-30T14:33:42;100398.00;;;3.78;88.89
76732;BME280;65656;51.130;13.658;2024-01-30T14:37:44;100398.97;;;3.85;89.19
76732;BME280;65656;51.130;13.658;2024-01-30T14:41:47;100405.25;;;3.63;90.07
76732;BME280;65656;51.130;13.658;2024-01-30T14:45:50;100399.47;;;3.66;89.71
76732;BME280;65656;51.130;13.658;2024-01-30T14:49:51;100393.81;;;3.53;90.59
76732;BME280;65656;51.130;13.658;2024-01-30T14:53:53;100386.09;;;3.42;90.71
76732;BME280;65656;51.130;13.658;2024-01-30T14:57:55;100388.25;;;3.23;92.07
76732;BME280;65656;51.130;13.658;2024-01-30T15:01:58;100390.97;;;3.23;93.71
76732;BME280;65656;51.130;13.658;2024-01-30T15:06:00;100378.84;;;3.11;93.48
76732;BME280;65656;51.130;13.658;2024-01-30T15:10:02;100380.28;;;2.99;93.74
76732;BME280;65656;51.130;13.658;2024-01-30T15:14:07;100382.19;;;2.90;94.35
76732;BME280;65656;51.130;13.658;2024-01-30T15:18:10;100383.09;;;2.74;95.40
76732;BME280;65656;51.130;13.658;2024-01-30T15:22:15;100380.44;;;2.66;96.33
76732;BME280;65656;51.130;13.658;2024-01-30T15:26:16;100372.69;;;2.55;96.18
76732;BME280;65656;51.130;13.658;2024-01-30T15:30:18;100388.66;;;2.42;97.59
76732;BME280;65656;51.130;13.658;2024-01-30T15:34:21;100382.94;;;2.29;98.36
76732;BME280;65656;51.130;13.658;2024-01-30T15:38:22;100385.00;;;2.18;99.54
76732;BME280;65656;51.130;13.658;2024-01-30T15:42:24;100382.44;;;2.09;99.33
76732;BME280;65656;51.130;13.658;2024-01-30T15:46:26;100394.97;;;2.02;99.94
76732;BME280;65656;51.130;13.658;2024-01-30T15:50:29;100405.97;;;1.92;100.00
76732;BME280;65656;51.130;13.658;2024-01-30T15:54:30;100414.75;;;1.86;100.00
76732;BME280;65656;51.130;13.658;2024-01-30T15:58:32;100415.09;;;1.83;100.00
76732;BME280;65656;51.130;13.658;2024-01-30T16:02:33;100420.84;;;1.88;100.00
76732;BME280;65656;51.130;13.658;2024-01-30T16:06:36;100420.66;;;1.73;100.00
76732;BME280;65656;51.130;13.658;2024-01-30T16:10:38;100434.16;;;1.65;100.00
76732;BME280;65656;51.130;13.658;2024-01-30T16:14:40;100433.16;;;1.66;100.00
76732;BME280;65656;51.130;13.658;2024-01-30T16:18:41;100420.13;;;1.61;100.00
76732;BME280;65656;51.130;13.658;2024-01-30T16:22:44;100428.06;;;1.63;100.00
76732;BME280;65656;51.130;13.658;2024-01-30T16:26:46;100417.44;;;1.61;100.00
76732;BME280;65656;51.130;13.658;2024-01-30T16:30:47;100414.06;;;1.59;100.00
76732;BME280;65656;51.130;13.658;2024-01-30T16:34:49;100412.03;;;1.61;100.00
76732;BME280;65656;51.130;13.658;2024-01-30T16:38:52;100410.19;;;1.70;100.00
76732;BME280;65656;51.130;13.658;2024-01-30T16:42:53;100394.16;;;1.60;100.00
76732;BME280;65656;51.130;13.658;2024-01-30T16:46:55;100421.16;;;1.60;100.00
76732;BME280;65656;51.130;13.658;2024-01-30T16:50:56;100415.25;;;1.65;100.00
76732;BME280;65656;51.130;13.658;2024-01-30T16:54:59;100411.72;;;1.56;100.00
76732;BME280;65656;51.130;13.658;2024-01-30T16:59:01;100434.47;;;1.46;100.00
76732;BME280;65656;51.130;13.658;2024-01-30T17:03:03;100426.22;;;1.55;100.00
76732;BME280;65656;51.130;13.658;2024-01-30T17:07:05;100435.47;;;1.36;100.00
76732;BME280;65656;51.130;13.658;2024-01-30T17:11:08;100435.63;;;1.27;100.00
76732;BME280;65656;51.130;13.658;2024-01-30T17:15:10;100447.28;;;1.27;100.00
76732;BME280;65656;51.130;13.658;2024-01-30T17:19:11;100436.78;;;1.24;100.00
76732;BME280;65656;51.130;13.658;2024-01-30T17:23:13;100442.38;;;1.31;100.00
76732;BME280;65656;51.130;13.658;2024-01-30T17:27:16;100442.03;;;1.26;100.00
76732;BME280;65656;51.130;13.658;2024-01-30T17:31:18;100438.31;;;1.19;100.00
76732;BME280;65656;51.130;13.658;2024-01-30T17:35:19;100430.84;;;1.04;100.00
76732;BME280;65656;51.130;13.658;2024-01-30T17:39:21;100439.44;;;1.08;100.00
76732;BME280;65656;51.130;13.658;2024-01-30T17:43:24;100435.84;;;0.91;100.00
76732;BME280;65656;51.130;13.658;2024-01-30T17:47:26;100441.50;;;1.22;100.00
76732;BME280;65656;51.130;13.658;2024-01-30T17:51:27;100453.47;;;1.11;100.00
76732;BME280;65656;51.130;13.658;2024-01-30T17:55:29;100450.75;;;1.03;100.00
76732;BME280;65656;51.130;13.658;2024-01-30T17:59:32;100460.69;;;1.03;100.00
76732;BME280;65656;51.130;13.658;2024-01-30T18:03:33;100452.03;;;0.91;100.00
76732;BME280;65656;51.130;13.658;2024-01-30T18:07:35;100460.50;;;0.96;100.00
76732;BME280;65656;51.130;13.658;2024-01-30T18:11:37;100457.81;;;0.96;100.00
76732;BME280;65656;51.130;13.658;2024-01-30T18:15:40;100445.63;;;0.92;100.00
76732;BME280;65656;51.130;13.658;2024-01-30T18:19:42;100442.81;;;1.02;100.00
76732;BME280;65656;51.130;13.658;2024-01-30T18:23:43;100459.25;;;1.25;100.00
76732;BME280;65656;51.130;13.658;2024-01-30T18:27:46;100462.56;;;1.02;100.00
76732;BME280;65656;51.130;13.658;2024-01-30T18:31:49;100468.97;;;1.01;100.00
76732;BME280;65656;51.130;13.658;2024-01-30T18:35:50;100469.31;;;1.15;100.00
76732;BME280;65656;51.130;13.658;2024-01-30T18:39:52;100460.69;;;1.03;100.00
76732;BME280;65656;51.130;13.658;2024-01-30T18:43:54;100448.25;;;1.10;100.00
76732;BME280;65656;51.130;13.658;2024-01-30T18:47:59;100465.63;;;1.16;100.00
76732;BME280;65656;51.130;13.658;2024-01-30T18:52:01;100465.34;;;1.35;100.00
76732;BME280;65656;51.130;13.658;2024-01-30T18:56:03;100470.16;;;1.15;100.00
76732;BME280;65656;51.130;13.658;2024-01-30T19:00:06;100473.63;;;0.91;100.00
76732;BME280;65656;51.130;13.658;2024-01-30T19:04:09;100470.63;;;0.94;100.00
76732;BME280;65656;51.130;13.658;2024-01-30T19:08:13;100475.03;;;1.03;100.00
76732;BME280;65656;51.130;13.658;2024-01-30T19:12:15;100455.34;;;1.19;100.00
76732;BME280;65656;51.130;13.658;2024-01-30T19:16:16;100467.00;;;1.20;100.00
76732;BME280;65656;51.130;13.658;2024-01-30T19:20:19;100467.31;;;1.17;100.00
76732;BME280;65656;51.130;13.658;2024-01-30T19:24:21;100474.75;;;1.23;100.00
76732;BME280;65656;51.130;13.658;2024-01-30T19:28:22;100474.41;;;1.18;100.00
76732;BME280;65656;51.130;13.658;2024-01-30T19:32:24;100485.56;;;1.31;100.00
76732;BME280;65656;51.130;13.658;2024-01-30T19:36:27;100484.50;;;1.16;100.00
76732;BME280;65656;51.130;13.658;2024-01-30T19:40:29;100482.84;;;1.23;100.00
76732;BME280;65656;51.130;13.658;2024-01-30T19:44:31;100487.91;;;1.18;100.00
76732;BME280;65656;51.130;13.658;2024-01-30T19:48:33;100493.34;;;1.26;100.00
76732;BME280;65656;51.130;13.658;2024-01-30T19:52:36;100506.03;;;1.33;100.00
76732;BME280;65656;51.130;13.658;2024-01-30T19:56:37;100507.88;;;1.33;100.00
76732;BME280;65656;51.130;13.658;2024-01-30T20:00:39;100508.56;;;1.35;100.00
76732;BME280;65656;51.130;13.658;2024-01-30T20:04:40;100506.88;;;1.34;100.00
76732;BME280;65656;51.130;13.658;2024-01-30T20:08:43;100518.69;;;1.41;100.00
76732;BME280;65656;51.130;13.658;2024-01-30T20:12:45;100519.38;;;1.43;100.00
76732;BME280;65656;51.130;13.658;2024-01-30T20:16:46;100519.66;;;1.32;100.00
76732;BME280;65656;51.130;13.658;2024-01-30T20:20:48;100527.09;;;1.30;100.00
76732;BME280;65656;51.130;13.658;2024-01-30T20:24:51;100523.91;;;1.34;100.00
76732;BME280;65656;51.130;13.658;2024-01-30T20:29:01;100522.03;;;1.35;100.00
76732;BME280;65656;51.130;13.658;2024-01-30T20:33:03;100526.03;;;1.23;100.00
76732;BME280;65656;51.130;13.658;2024-01-30T20:37:05;100523.50;;;1.21;100.00
76732;BME280;65656;51.130;13.658;2024-01-30T20:41:08;100523.72;;;1.28;100.00
76732;BME280;65656;51.130;13.658;2024-01-30T20:45:09;100529.81;;;1.38;100.00
76732;BME280;65656;51.130;13.658;2024-01-30T20:49:11;100529.81;;;1.38;100.00
76732;BME280;65656;51.130;13.658;2024-01-30T20:53:17;100533.53;;;1.37;100.00